createdAt,value
2023-04-02T00:00:17.970Z,100.00
2023-04-02T00:02:57.541Z,100.00
2023-04-02T00:05:52.194Z,100.00
2023-04-02T00:08:23.489Z,100.00
2023-04-02T00:10:54.833Z,100.00
2023-04-02T00:13:33.213Z,100.00
2023-04-02T00:16:03.362Z,100.00
2023-04-02T00:18:33.980Z,100.00
2023-04-02T00:21:10.490Z,100.00
2023-04-02T00:23:40.505Z,100.00
2023-04-02T00:26:23.075Z,100.00
2023-04-02T00:28:51.820Z,100.00
2023-04-02T00:31:21.388Z,100.00
2023-04-02T00:33:50.492Z,100.00
2023-04-02T00:36:22.055Z,100.00
2023-04-02T00:38:50.184Z,100.00
2023-04-02T00:41:24.169Z,100.00
2023-04-02T00:43:54.636Z,100.00
2023-04-02T00:46:26.543Z,100.00
2023-04-02T00:49:00.815Z,100.00
2023-04-02T00:51:33.328Z,100.00
2023-04-02T00:54:06.015Z,100.00
2023-04-02T00:56:41.158Z,100.00
2023-04-02T00:59:20.477Z,100.00
2023-04-02T01:01:54.414Z,100.00
2023-04-02T01:04:32.624Z,100.00
2023-04-02T01:07:05.024Z,100.00
2023-04-02T01:09:44.177Z,100.00
2023-04-02T01:12:27.263Z,100.00
2023-04-02T01:15:04.856Z,100.00
2023-04-02T01:17:48.898Z,100.00
2023-04-02T01:21:07.670Z,100.00
2023-04-02T01:23:46.227Z,100.00
2023-04-02T01:26:22.868Z,100.00
2023-04-02T01:29:03.777Z,100.00
2023-04-02T01:31:33.374Z,100.00
2023-04-02T01:34:03.557Z,100.00
2023-04-02T01:36:40.614Z,100.00
2023-04-02T01:39:20.329Z,100.00
2023-04-02T01:41:56.300Z,100.00
2023-04-02T01:44:31.945Z,100.00
2023-04-02T01:47:03.857Z,100.00
2023-04-02T01:49:31.829Z,100.00
2023-04-02T01:52:00.744Z,100.00
2023-04-02T01:54:28.871Z,100.00
2023-04-02T01:56:58.117Z,100.00
2023-04-02T01:59:28.980Z,100.00
2023-04-02T02:02:02.377Z,100.00
2023-04-02T02:04:30.630Z,100.00
2023-04-02T02:07:00.758Z,100.00
2023-04-02T02:09:31.895Z,100.00
2023-04-02T02:12:02.542Z,100.00
2023-04-02T02:14:32.511Z,100.00
2023-04-02T02:17:03.038Z,100.00
2023-04-02T02:19:36.199Z,100.00
2023-04-02T02:22:11.251Z,100.00
2023-04-02T02:24:39.947Z,100.00
2023-04-02T02:27:35.508Z,100.00
2023-04-02T02:30:13.407Z,100.00
2023-04-02T02:32:51.188Z,100.00
2023-04-02T02:35:24.044Z,100.00
2023-04-02T02:37:56.377Z,100.00
2023-04-02T02:40:31.046Z,100.00
2023-04-02T02:43:03.609Z,100.00
2023-04-02T02:45:38.747Z,100.00
2023-04-02T02:48:11.881Z,100.00
2023-04-02T02:50:41.231Z,100.00
2023-04-02T02:53:18.034Z,100.00
2023-04-02T02:55:47.115Z,100.00
2023-04-02T02:58:17.967Z,100.00
2023-04-02T03:00:48.049Z,100.00
2023-04-02T03:03:18.996Z,100.00
2023-04-02T03:05:52.680Z,100.00
2023-04-02T03:08:28.722Z,100.00
2023-04-02T03:11:03.520Z,100.00
2023-04-02T03:13:35.441Z,100.00
2023-04-02T03:16:12.330Z,100.00
2023-04-02T03:18:46.576Z,100.00
2023-04-02T03:21:34.338Z,100.00
2023-04-02T03:24:04.602Z,100.00
2023-04-02T03:26:38.815Z,100.00
2023-04-02T03:29:14.520Z,100.00
2023-04-02T03:31:48.300Z,100.00
2023-04-02T03:34:21.690Z,100.00
2023-04-02T03:36:56.833Z,100.00
2023-04-02T03:39:31.649Z,100.00
2023-04-02T03:42:04.329Z,100.00
2023-04-02T03:44:39.388Z,100.00
2023-04-02T03:47:16.236Z,100.00
2023-04-02T03:49:49.264Z,100.00
2023-04-02T03:52:23.894Z,100.00
2023-04-02T03:54:53.718Z,100.00
2023-04-02T03:57:30.727Z,100.00
2023-04-02T04:00:04.879Z,100.00
2023-04-02T04:02:43.315Z,100.00
2023-04-02T04:05:22.231Z,100.00
2023-04-02T04:07:54.479Z,100.00
2023-04-02T04:10:26.812Z,100.00
2023-04-02T04:12:58.475Z,100.00
2023-04-02T04:15:31.229Z,100.00
2023-04-02T04:18:04.460Z,100.00
2023-04-02T04:20:46.121Z,100.00
2023-04-02T04:23:25.800Z,100.00
2023-04-02T04:25:59.828Z,100.00
2023-04-02T04:28:33.871Z,100.00
2023-04-02T04:31:06.867Z,100.00
2023-04-02T04:33:42.798Z,100.00
2023-04-02T04:36:28.726Z,100.00
2023-04-02T04:39:01.301Z,100.00
2023-04-02T04:41:33.381Z,100.00
2023-04-02T04:44:05.848Z,100.00
2023-04-02T04:46:38.952Z,100.00
2023-04-02T04:49:13.275Z,100.00
2023-04-02T04:51:45.854Z,100.00
2023-04-02T04:54:15.132Z,100.00
2023-04-02T04:56:48.505Z,100.00
2023-04-02T04:59:22.901Z,100.00
2023-04-02T05:01:56.363Z,100.00
2023-04-02T05:04:32.565Z,100.00
2023-04-02T05:07:06.131Z,100.00
2023-04-02T05:09:43.775Z,100.00
2023-04-02T05:12:21.270Z,100.00
2023-04-02T05:14:55.351Z,100.00
2023-04-02T05:17:30.345Z,100.00
2023-04-02T05:20:09.596Z,100.00
2023-04-02T05:22:45.767Z,100.00
2023-04-02T05:25:20.963Z,100.00
2023-04-02T05:27:53.560Z,100.00
2023-04-02T05:30:49.356Z,100.00
2023-04-02T05:33:23.517Z,100.00
2023-04-02T05:36:05.291Z,100.00
2023-04-02T05:38:40.470Z,100.00
2023-04-02T05:41:15.801Z,100.00
2023-04-02T05:43:49.708Z,100.00
2023-04-02T05:46:23.574Z,100.00
2023-04-02T05:49:20.545Z,100.00
2023-04-02T05:52:00.942Z,100.00
2023-04-02T05:54:37.995Z,100.00
2023-04-02T05:57:12.046Z,100.00
2023-04-02T05:59:48.948Z,100.00
2023-04-02T06:02:25.858Z,100.00
2023-04-02T06:05:02.153Z,100.00
2023-04-02T06:07:47.455Z,100.00
2023-04-02T06:10:44.079Z,100.00
2023-04-02T06:13:17.445Z,100.00
2023-04-02T06:15:49.778Z,100.00
2023-04-02T06:18:40.202Z,100.00
2023-04-02T06:21:18.484Z,100.00
2023-04-02T06:23:57.120Z,100.00
2023-04-02T06:26:31.397Z,100.00
2023-04-02T06:29:05.295Z,100.00
2023-04-02T06:31:42.628Z,100.00
2023-04-02T06:34:25.082Z,100.00
2023-04-02T06:36:56.937Z,100.00
2023-04-02T06:39:30.172Z,100.00
2023-04-02T06:42:02.796Z,100.00
2023-04-02T06:44:37.016Z,100.00
2023-04-02T06:47:13.522Z,100.00
2023-04-02T06:49:46.681Z,100.00
2023-04-02T06:52:20.087Z,100.00
2023-04-02T06:54:53.260Z,100.00
2023-04-02T06:57:25.397Z,100.00
2023-04-02T06:59:54.685Z,100.00
2023-04-02T07:02:32.322Z,100.00
2023-04-02T07:05:19.170Z,100.00
2023-04-02T07:07:56.271Z,100.00
2023-04-02T07:10:31.855Z,100.00
2023-04-02T07:13:14.882Z,100.00
2023-04-02T07:15:46.819Z,100.00
2023-04-02T07:18:24.771Z,100.00
2023-04-02T07:20:56.109Z,100.00
2023-04-02T07:23:32.336Z,100.00
2023-04-02T07:26:04.983Z,100.00
2023-04-02T07:28:33.922Z,100.00
2023-04-02T07:31:03.923Z,100.00
2023-04-02T07:33:32.855Z,100.00
2023-04-02T07:36:00.775Z,100.00
2023-04-02T07:38:28.774Z,100.00
2023-04-02T07:41:11.904Z,100.00
2023-04-02T07:43:41.131Z,100.00
2023-04-02T07:46:16.714Z,100.00
2023-04-02T07:48:44.977Z,100.00
2023-04-02T07:51:18.169Z,100.00
2023-04-02T07:53:50.218Z,100.00
2023-04-02T07:56:21.141Z,100.00
2023-04-02T07:58:49.010Z,100.00
2023-04-02T08:01:20.889Z,100.00
2023-04-02T08:03:49.780Z,100.00
2023-04-02T08:06:18.504Z,100.00
2023-04-02T08:08:46.569Z,100.00
2023-04-02T08:11:14.775Z,100.00
2023-04-02T08:13:44.425Z,100.00
2023-04-02T08:16:12.316Z,100.00
2023-04-02T08:18:40.116Z,100.00
2023-04-02T08:21:09.387Z,100.00
2023-04-02T08:23:37.719Z,100.00
2023-04-02T08:26:06.288Z,100.00
2023-04-02T08:28:34.069Z,100.00
2023-04-02T08:31:04.725Z,100.00
2023-04-02T08:33:32.712Z,100.00
2023-04-02T08:36:00.913Z,100.00
2023-04-02T08:38:28.700Z,100.00
2023-04-02T08:41:00.863Z,100.00
2023-04-02T08:43:52.863Z,100.00
2023-04-02T08:46:27.854Z,100.00
2023-04-02T08:48:59.345Z,100.00
2023-04-02T08:51:29.189Z,100.00
2023-04-02T08:54:01.487Z,100.00
2023-04-02T08:56:35.015Z,100.00
2023-04-02T08:59:09.445Z,100.00
2023-04-02T09:01:48.954Z,100.00
2023-04-02T09:04:21.238Z,100.00
2023-04-02T09:06:51.467Z,100.00
2023-04-02T09:09:20.797Z,100.00
2023-04-02T09:11:54.416Z,100.00
2023-04-02T09:14:31.998Z,100.00
2023-04-02T09:17:03.694Z,100.00
2023-04-02T09:19:37.222Z,100.00
2023-04-02T09:22:10.416Z,100.00
2023-04-02T09:24:38.641Z,100.00
2023-04-02T09:27:19.014Z,100.00
2023-04-02T09:29:48.617Z,100.00
2023-04-02T09:32:49.965Z,100.00
2023-04-02T09:35:26.053Z,100.00
2023-04-02T09:38:31.393Z,100.00
2023-04-02T09:41:01.666Z,100.00
2023-04-02T09:43:31.795Z,100.00
2023-04-02T09:46:01.923Z,100.00
2023-04-02T09:48:33.570Z,100.00
2023-04-02T09:51:16.369Z,100.00
2023-04-02T09:53:46.058Z,100.00
2023-04-02T09:56:17.212Z,100.00
2023-04-02T09:58:46.787Z,100.00
2023-04-02T10:01:29.507Z,100.00
2023-04-02T10:04:00.049Z,100.00
2023-04-02T10:06:30.300Z,100.00
2023-04-02T10:08:58.524Z,100.00
2023-04-02T10:11:43.574Z,100.00
2023-04-02T10:14:20.393Z,100.00
2023-04-02T10:16:52.940Z,100.00
2023-04-02T10:19:28.665Z,100.00
2023-04-02T10:21:58.865Z,100.00
2023-04-02T10:24:28.918Z,100.00
2023-04-02T10:27:09.884Z,100.00
2023-04-02T10:30:05.964Z,100.00
2023-04-02T10:32:41.761Z,100.00
2023-04-02T10:35:20.305Z,100.00
2023-04-02T10:38:26.315Z,100.00
2023-04-02T10:41:00.583Z,100.00
2023-04-02T10:43:44.418Z,100.00
2023-04-02T10:46:19.150Z,100.00
2023-04-02T10:48:55.367Z,100.00
2023-04-02T10:51:34.210Z,100.00
2023-04-02T10:54:16.625Z,100.00
2023-04-02T10:56:52.010Z,100.00
2023-04-02T10:59:23.610Z,100.00
2023-04-02T11:01:53.891Z,100.00
2023-04-02T11:04:26.192Z,100.00
2023-04-02T11:07:11.260Z,100.00
2023-04-02T11:09:45.011Z,100.00
2023-04-02T11:12:23.416Z,100.00
2023-04-02T11:14:52.957Z,100.00
2023-04-02T11:17:21.888Z,100.00
2023-04-02T11:19:49.747Z,100.00
2023-04-02T11:22:22.140Z,100.00
2023-04-02T11:24:51.768Z,100.00
2023-04-02T11:27:25.648Z,100.00
2023-04-02T11:30:01.318Z,100.00
2023-04-02T11:32:34.854Z,100.00
2023-04-02T11:35:18.807Z,100.00
2023-04-02T11:37:47.976Z,100.00
2023-04-02T11:40:42.159Z,100.00
2023-04-02T11:43:46.615Z,100.00
2023-04-02T11:46:46.478Z,100.00
2023-04-02T11:49:40.850Z,100.00
2023-04-02T11:52:23.417Z,100.00
2023-04-02T11:55:22.333Z,100.00
2023-04-02T11:58:27.376Z,100.00
2023-04-02T12:01:30.848Z,100.00
2023-04-02T12:04:52.436Z,100.00
2023-04-02T12:07:34.988Z,100.00
2023-04-02T12:10:06.926Z,100.00
2023-04-02T12:12:38.786Z,100.00
2023-04-02T12:15:26.027Z,100.00
2023-04-02T12:17:54.356Z,100.00
2023-04-02T12:20:27.694Z,100.00
2023-04-02T12:22:56.860Z,100.00
2023-04-02T12:25:31.447Z,100.00
2023-04-02T12:28:09.326Z,100.00
2023-04-02T12:30:38.737Z,100.00
2023-04-02T12:33:30.582Z,100.00
2023-04-02T12:36:00.081Z,100.00
2023-04-02T12:38:30.024Z,100.00
2023-04-02T12:41:01.349Z,100.00
2023-04-02T12:43:30.831Z,100.00
2023-04-02T12:46:00.573Z,100.00
2023-04-02T12:48:29.024Z,100.00
2023-04-02T12:50:57.866Z,100.00
2023-04-02T12:53:30.552Z,100.00
2023-04-02T12:55:59.755Z,100.00
2023-04-02T12:58:30.738Z,100.00
2023-04-02T13:01:14.319Z,100.00
2023-04-02T13:03:42.350Z,100.00
2023-04-02T13:06:24.276Z,100.00
2023-04-02T13:08:52.402Z,100.00
2023-04-02T13:11:22.626Z,100.00
2023-04-02T13:13:51.336Z,100.00
2023-04-02T13:16:34.475Z,100.00
2023-04-02T13:19:21.824Z,100.00
2023-04-02T13:21:49.946Z,100.00
2023-04-02T13:24:18.914Z,100.00
2023-04-02T13:26:49.667Z,100.00
2023-04-02T13:29:22.565Z,100.00
2023-04-02T13:31:50.482Z,100.00
2023-04-02T13:34:19.071Z,100.00
2023-04-02T13:36:47.228Z,100.00
2023-04-02T13:39:15.463Z,100.00
2023-04-02T13:41:45.140Z,100.00
2023-04-02T13:44:26.261Z,100.00
2023-04-02T13:46:55.715Z,100.00
2023-04-02T13:49:24.332Z,100.00
2023-04-02T13:51:54.331Z,100.00
2023-04-02T13:54:27.733Z,100.00
2023-04-02T13:56:57.032Z,100.00
2023-04-02T13:59:27.783Z,100.00
2023-04-02T14:01:58.827Z,100.00
2023-04-02T14:04:30.801Z,100.00
2023-04-02T14:07:27.293Z,100.00
2023-04-02T14:10:04.072Z,100.00
2023-04-02T14:12:42.494Z,100.00
2023-04-02T14:15:23.296Z,100.00
2023-04-02T14:18:04.933Z,100.00
2023-04-02T14:20:42.062Z,100.00
2023-04-02T14:23:22.446Z,100.00
2023-04-02T14:25:58.447Z,100.00
2023-04-02T14:28:38.047Z,100.00
2023-04-02T14:31:18.228Z,100.00
2023-04-02T14:33:52.372Z,100.00
2023-04-02T14:36:29.297Z,100.00
2023-04-02T14:39:02.231Z,100.00
2023-04-02T14:41:38.018Z,100.00
2023-04-02T14:44:08.396Z,100.00
2023-04-02T14:46:39.565Z,100.00
2023-04-02T14:49:18.232Z,100.00
2023-04-02T14:51:50.800Z,100.00
2023-04-02T14:54:28.979Z,100.00
2023-04-02T14:57:04.911Z,100.00
2023-04-02T14:59:35.582Z,100.00
2023-04-02T15:02:09.993Z,100.00
2023-04-02T15:04:42.309Z,100.00
2023-04-02T15:07:18.789Z,100.00
2023-04-02T15:09:53.249Z,100.00
2023-04-02T15:12:28.144Z,100.00
2023-04-02T15:15:00.469Z,100.00
2023-04-02T15:17:31.008Z,100.00
2023-04-02T15:20:13.022Z,100.00
2023-04-02T15:22:47.642Z,100.00
2023-04-02T15:25:28.072Z,100.00
2023-04-02T15:28:11.890Z,100.00
2023-04-02T15:30:43.352Z,100.00
2023-04-02T15:33:41.423Z,100.00
2023-04-02T15:36:33.844Z,100.00
2023-04-02T15:39:15.264Z,100.00
2023-04-02T15:41:54.033Z,100.00
2023-04-02T15:44:21.815Z,100.00
2023-04-02T15:46:56.502Z,100.00
2023-04-02T15:49:41.461Z,100.00
2023-04-02T15:52:14.092Z,100.00
2023-04-02T15:54:54.656Z,100.00
2023-04-02T15:57:43.140Z,100.00
2023-04-02T16:00:21.298Z,100.00
2023-04-02T16:03:18.222Z,100.00
2023-04-02T16:05:56.888Z,100.00
2023-04-02T16:08:38.016Z,100.00
2023-04-02T16:11:11.195Z,100.00
2023-04-02T16:13:40.353Z,100.00
2023-04-02T16:16:12.757Z,100.00
2023-04-02T16:18:51.899Z,100.00
2023-04-02T16:21:23.897Z,100.00
2023-04-02T16:23:52.450Z,100.00
2023-04-02T16:26:32.776Z,100.00
2023-04-02T16:29:13.115Z,97.98
2023-04-02T16:31:49.908Z,96.53
2023-04-02T16:34:34.293Z,99.33
2023-04-02T16:37:11.533Z,100.00
2023-04-02T16:39:47.675Z,98.50
2023-04-02T16:42:28.991Z,98.94
2023-04-02T16:45:10.394Z,100.00
2023-04-02T16:47:51.557Z,99.67
2023-04-02T16:50:30.284Z,99.18
2023-04-02T16:53:09.537Z,100.00
2023-04-02T16:55:47.899Z,100.00
2023-04-02T16:58:31.909Z,98.64
2023-04-02T17:01:06.301Z,99.35
2023-04-02T17:03:52.050Z,98.74
2023-04-02T17:06:32.945Z,98.57
2023-04-02T17:09:07.387Z,97.88
2023-04-02T17:11:42.021Z,98.03
2023-04-02T17:14:23.895Z,98.76
2023-04-02T17:16:55.776Z,99.24
2023-04-02T17:19:26.936Z,96.88
2023-04-02T17:21:58.917Z,93.74
2023-04-02T17:24:31.793Z,93.56
2023-04-02T17:27:06.194Z,93.69
2023-04-02T17:29:37.450Z,91.10
2023-04-02T17:32:13.250Z,89.39
2023-04-02T17:34:41.296Z,89.76
2023-04-02T17:37:20.410Z,89.08
2023-04-02T17:39:57.321Z,87.94
2023-04-02T17:42:39.011Z,88.46
2023-04-02T17:45:15.497Z,88.16
2023-04-02T17:47:53.682Z,89.01
2023-04-02T17:50:38.677Z,87.33
2023-04-02T17:53:18.990Z,88.19
2023-04-02T17:55:56.696Z,88.16
2023-04-02T17:58:43.264Z,89.18
2023-04-02T18:01:17.700Z,90.06
2023-04-02T18:03:58.425Z,90.83
2023-04-02T18:06:32.977Z,91.83
2023-04-02T18:09:20.270Z,92.14
2023-04-02T18:11:56.832Z,92.82
2023-04-02T18:14:41.485Z,94.27
2023-04-02T18:17:18.261Z,95.80
2023-04-02T18:19:54.949Z,95.11
2023-04-02T18:22:32.427Z,95.07
2023-04-02T18:25:24.686Z,95.27
2023-04-02T18:28:07.662Z,96.89
2023-04-02T18:30:40.184Z,96.13
2023-04-02T18:33:23.317Z,97.90
2023-04-02T18:36:00.347Z,98.63
2023-04-02T18:38:38.354Z,99.40
2023-04-02T18:41:21.981Z,99.79
2023-04-02T18:44:05.842Z,99.20
2023-04-02T18:46:43.376Z,100.00
2023-04-02T18:49:24.736Z,100.00
2023-04-02T18:51:58.214Z,100.00
2023-04-02T18:54:32.124Z,100.00
2023-04-02T18:57:02.391Z,100.00
2023-04-02T18:59:39.228Z,100.00
2023-04-02T19:02:26.982Z,100.00
2023-04-02T19:05:01.265Z,100.00
2023-04-02T19:07:32.806Z,99.09
2023-04-02T19:10:15.059Z,96.35
2023-04-02T19:12:42.893Z,97.07
2023-04-02T19:15:21.291Z,95.17
2023-04-02T19:17:57.752Z,93.98
2023-04-02T19:20:34.791Z,94.71
2023-04-02T19:23:21.003Z,95.77
2023-04-02T19:26:02.678Z,93.95
2023-04-02T19:28:35.803Z,94.90
2023-04-02T19:31:40.932Z,95.55
2023-04-02T19:34:20.051Z,94.79
2023-04-02T19:36:53.785Z,95.42
2023-04-02T19:39:46.659Z,95.81
2023-04-02T19:42:34.455Z,96.47
2023-04-02T19:45:03.547Z,94.41
2023-04-02T19:47:32.743Z,92.75
2023-04-02T19:50:00.517Z,91.17
2023-04-02T19:52:28.366Z,90.66
2023-04-02T19:54:56.107Z,89.17
2023-04-02T19:57:23.899Z,88.52
2023-04-02T19:59:51.752Z,85.48
2023-04-02T20:02:19.484Z,85.21
2023-04-02T20:04:48.582Z,83.79
2023-04-02T20:07:16.573Z,83.34
2023-04-02T20:09:44.327Z,83.90
2023-04-02T20:12:12.360Z,82.94
2023-04-02T20:14:40.158Z,83.96
2023-04-02T20:17:07.944Z,84.13
2023-04-02T20:19:35.688Z,83.01
2023-04-02T20:22:04.813Z,81.84
2023-04-02T20:24:32.571Z,80.93
2023-04-02T20:27:00.525Z,79.35
2023-04-02T20:29:30.715Z,78.66
2023-04-02T20:31:58.596Z,78.25
2023-04-02T20:34:26.568Z,78.15
2023-04-02T20:36:54.714Z,77.94
2023-04-02T20:39:24.163Z,76.87
2023-04-02T20:41:51.967Z,76.80
2023-04-02T20:44:19.776Z,77.31
2023-04-02T20:46:47.566Z,77.75
2023-04-02T20:49:15.560Z,77.45
2023-04-02T20:51:43.480Z,77.62
2023-04-02T20:54:11.408Z,75.90
2023-04-02T20:56:40.716Z,75.98
2023-04-02T20:59:08.513Z,77.20
2023-04-02T21:01:36.725Z,76.80
2023-04-02T21:04:04.965Z,78.52
2023-04-02T21:06:34.907Z,77.06
2023-04-02T21:09:04.044Z,76.54
2023-04-02T21:11:32.766Z,75.90
2023-04-02T21:14:01.907Z,75.79
2023-04-02T21:16:31.912Z,76.52
2023-04-02T21:19:02.226Z,76.34
2023-04-02T21:21:30.417Z,76.41
2023-04-02T21:24:00.365Z,75.53
2023-04-02T21:26:29.574Z,74.69
2023-04-02T21:28:57.527Z,75.22
2023-04-02T21:31:28.234Z,75.02
2023-04-02T21:33:57.788Z,74.00
2023-04-02T21:36:27.241Z,74.54
2023-04-02T21:38:57.387Z,75.28
2023-04-02T21:41:27.529Z,75.50
2023-04-02T21:43:56.111Z,76.14
2023-04-02T21:46:27.908Z,76.84
2023-04-02T21:48:58.944Z,75.43
2023-04-02T21:51:29.275Z,75.56
2023-04-02T21:53:57.338Z,75.56
2023-04-02T21:56:29.611Z,74.79
2023-04-02T21:58:58.589Z,74.38
2023-04-02T22:01:29.246Z,75.04
2023-04-02T22:03:58.561Z,75.95
2023-04-02T22:06:28.184Z,76.08
2023-04-02T22:08:57.933Z,76.85
2023-04-02T22:11:28.324Z,77.39
2023-04-02T22:13:56.392Z,77.16
2023-04-02T22:16:26.251Z,76.94
2023-04-02T22:18:58.258Z,78.09
2023-04-02T22:21:26.693Z,77.07
2023-04-02T22:23:54.797Z,78.39
2023-04-02T22:26:23.976Z,78.31
2023-04-02T22:28:52.777Z,78.23
2023-04-02T22:31:22.313Z,80.06
2023-04-02T22:33:50.408Z,80.70
2023-04-02T22:36:20.440Z,79.88
2023-04-02T22:38:48.239Z,79.51
2023-04-02T22:41:18.412Z,79.95
2023-04-02T22:43:47.344Z,80.91
2023-04-02T22:46:17.485Z,81.65
2023-04-02T22:48:45.750Z,81.86
2023-04-02T22:51:16.122Z,82.00
2023-04-02T22:53:45.593Z,83.11
2023-04-02T22:56:15.751Z,84.06
2023-04-02T22:58:44.013Z,84.24
2023-04-02T23:01:14.963Z,84.55
2023-04-02T23:03:42.978Z,84.47
2023-04-02T23:06:12.594Z,85.11
2023-04-02T23:08:41.466Z,85.18
2023-04-02T23:11:13.381Z,85.78
2023-04-02T23:13:42.305Z,85.87
2023-04-02T23:16:13.293Z,85.97
2023-04-02T23:18:42.500Z,86.51
2023-04-02T23:21:11.119Z,86.95
2023-04-02T23:23:39.114Z,87.10
2023-04-02T23:26:08.315Z,86.85
2023-04-02T23:28:39.281Z,87.37
2023-04-02T23:31:09.054Z,88.53
2023-04-02T23:33:36.843Z,88.23
2023-04-02T23:36:08.469Z,88.29
2023-04-02T23:38:36.300Z,87.98
2023-04-02T23:41:04.184Z,87.36
2023-04-02T23:43:32.090Z,87.33
2023-04-02T23:46:01.415Z,86.87
2023-04-02T23:48:29.285Z,87.17
2023-04-02T23:50:57.070Z,88.04
2023-04-02T23:53:24.832Z,88.49
2023-04-02T23:55:52.591Z,88.96
2023-04-02T23:58:20.344Z,89.04
